Time;durP1;ratioP1;P1;durP2;ratioP2;P2;SDS_P1;SDS_P2;PMS_P1;PMS_P2;Temp;Humidity;BMP_temperature;BMP_pressure;BME280_temperature;BME280_humidity;BME280_pressure;Samples;Min_cycle;Max_cycle;Signal;HPM_P1;HPM_P2
2023/01/22 00:00:24;;;;;;;;;;;-1.90;99.90;;;;;;4949148;29;19926;-71
2023/01/22 00:02:54;;;;;;;;;;;-2.00;99.90;;;;;;4950499;29;20337;-71
2023/01/22 00:05:23;;;;;;;;;;;-2.00;99.90;;;;;;4952902;28;20312;-72
2023/01/22 00:07:54;;;;;;;;;;;-2.00;99.90;;;;;;4917464;29;19930;-71
2023/01/22 00:10:23;;;;;;;;;;;-2.10;99.90;;;;;;4936943;28;19934;-70
2023/01/22 00:12:53;;;;;;;;;;;-2.10;99.90;;;;;;4953278;28;19933;-71
2023/01/22 00:15:23;;;;;;;;;;;-2.10;99.90;;;;;;4935848;29;19926;-71
2023/01/22 00:17:52;;;;;;;;;;;-2.10;99.90;;;;;;4941537;29;19926;-70
2023/01/22 00:20:22;;;;;;;;;;;-2.00;99.90;;;;;;4938865;29;19926;-72
2023/01/22 00:22:51;;;;;;;;;;;-2.00;99.90;;;;;;4929185;29;20021;-71
2023/01/22 00:25:20;;;;;;;;;;;-2.00;99.90;;;;;;4933046;29;19927;-71
2023/01/22 00:27:51;;;;;;;;;;;-1.90;99.90;;;;;;4933945;29;19930;-69
2023/01/22 00:30:20;;;;;;;;;;;-2.00;99.90;;;;;;4934934;29;20386;-71
2023/01/22 00:32:51;;;;;;;;;;;-2.00;99.90;;;;;;4919622;29;19938;-70
2023/01/22 00:35:20;;;;;;;;;;;-2.00;99.90;;;;;;4939074;29;19934;-70
2023/01/22 00:37:52;;;;;;;;;;;-2.00;99.90;;;;;;4954776;29;19951;-71
2023/01/22 00:40:21;;;;;;;;;;;-2.00;99.90;;;;;;4960571;29;20121;-70
2023/01/22 00:42:52;;;;;;;;;;;-2.00;99.90;;;;;;4950141;29;19951;-71
2023/01/22 00:45:21;;;;;;;;;;;-2.00;99.90;;;;;;4967497;29;19926;-71
2023/01/22 00:47:52;;;;;;;;;;;-2.00;99.90;;;;;;4933489;29;19959;-73
2023/01/22 00:50:22;;;;;;;;;;;-2.00;99.90;;;;;;4961953;29;19950;-73
2023/01/22 00:52:51;;;;;;;;;;;-2.00;99.90;;;;;;4962077;28;20070;-71
2023/01/22 00:55:21;;;;;;;;;;;-2.00;99.90;;;;;;4961566;28;19927;-70
2023/01/22 00:58:08;;;;;;;;;;;-2.00;99.90;;;;;;4942079;29;20025;-71
2023/01/22 01:00:37;;;;;;;;;;;-1.90;99.90;;;;;;4920326;29;19930;-71
2023/01/22 01:05:56;;;;;;;;;;;-1.90;99.90;;;;;;4950337;29;20511;-73
2023/01/22 01:08:30;;;;;;;;;;;-1.90;99.90;;;;;;4936413;29;20343;-71
2023/01/22 01:11:04;;;;;;;;;;;-1.90;99.90;;;;;;4917373;29;20336;-70
2023/01/22 01:13:41;;;;;;;;;;;-1.90;99.90;;;;;;4945701;29;19927;-71
2023/01/22 01:16:34;;;;;;;;;;;-1.90;99.90;;;;;;4938161;29;19926;-70
2023/01/22 01:19:05;;;;;;;;;;;-1.90;99.90;;;;;;4924120;29;19954;-71
2023/01/22 01:21:35;;;;;;;;;;;-1.90;99.90;;;;;;4935977;29;19962;-71
2023/01/22 01:24:04;;;;;;;;;;;-1.90;99.90;;;;;;4918640;29;20428;-70
2023/01/22 01:26:34;;;;;;;;;;;-1.90;99.90;;;;;;4930198;29;19954;-71
2023/01/22 01:29:03;;;;;;;;;;;-1.90;99.90;;;;;;4917540;29;19979;-71
2023/01/22 01:31:33;;;;;;;;;;;-1.90;99.90;;;;;;4951847;29;19927;-70
2023/01/22 01:34:02;;;;;;;;;;;-1.90;99.90;;;;;;4919892;29;19933;-71
2023/01/22 01:36:33;;;;;;;;;;;-1.90;99.90;;;;;;4937331;29;20386;-71
2023/01/22 01:39:03;;;;;;;;;;;-1.90;99.90;;;;;;4926581;29;19958;-70
2023/01/22 01:41:32;;;;;;;;;;;-1.80;99.90;;;;;;4943182;29;20404;-72
2023/01/22 01:44:05;;;;;;;;;;;-1.80;99.90;;;;;;4947358;29;20393;-70
2023/01/22 01:46:37;;;;;;;;;;;-1.80;99.90;;;;;;4917901;29;19930;-71
2023/01/22 01:49:16;;;;;;;;;;;-1.80;99.90;;;;;;4951907;28;20446;-70
2023/01/22 01:51:46;;;;;;;;;;;-1.90;99.90;;;;;;4949992;28;19930;-70
2023/01/22 01:54:16;;;;;;;;;;;-1.80;99.90;;;;;;4926789;28;20044;-72
2023/01/22 01:56:48;;;;;;;;;;;-1.90;99.90;;;;;;4935114;29;19927;-72
2023/01/22 01:59:18;;;;;;;;;;;-1.90;99.90;;;;;;4933663;29;20347;-72
2023/01/22 02:01:52;;;;;;;;;;;-1.90;99.90;;;;;;4929806;29;19926;-72
2023/01/22 02:04:32;;;;;;;;;;;-1.80;99.90;;;;;;4932754;29;19934;-72
2023/01/22 02:07:09;;;;;;;;;;;-1.80;99.90;;;;;;4945802;29;19927;-72
2023/01/22 02:09:40;;;;;;;;;;;-1.80;99.90;;;;;;4938375;29;19937;-71
2023/01/22 02:12:20;;;;;;;;;;;-1.80;99.90;;;;;;4942154;28;20394;-72
2023/01/22 02:14:49;;;;;;;;;;;-1.80;99.90;;;;;;4935231;29;20021;-72
2023/01/22 02:17:20;;;;;;;;;;;-1.80;99.90;;;;;;4919361;29;20374;-72
2023/01/22 02:19:50;;;;;;;;;;;-1.80;99.90;;;;;;4947512;28;20389;-71
2023/01/22 02:22:23;;;;;;;;;;;-1.80;99.90;;;;;;4900371;29;20008;-72
2023/01/22 02:24:52;;;;;;;;;;;-1.80;99.90;;;;;;4918215;29;20017;-72
2023/01/22 02:27:21;;;;;;;;;;;-1.70;99.90;;;;;;4900330;29;19931;-71
2023/01/22 02:29:49;;;;;;;;;;;-1.70;99.90;;;;;;4936600;29;19933;-70
2023/01/22 02:32:21;;;;;;;;;;;-1.70;99.90;;;;;;4953137;28;19934;-72
2023/01/22 02:34:49;;;;;;;;;;;-1.70;99.90;;;;;;4934551;29;19933;-70
2023/01/22 02:37:21;;;;;;;;;;;-1.60;99.90;;;;;;4949351;28;19930;-71
2023/01/22 02:39:51;;;;;;;;;;;-1.60;99.90;;;;;;4939660;29;19981;-71
2023/01/22 02:42:20;;;;;;;;;;;-1.60;99.90;;;;;;4949261;29;19954;-72
2023/01/22 02:44:51;;;;;;;;;;;-1.50;99.90;;;;;;4920039;29;19939;-72
2023/01/22 02:47:20;;;;;;;;;;;-1.60;99.90;;;;;;4923109;29;19927;-71
2023/01/22 02:49:50;;;;;;;;;;;-1.60;99.90;;;;;;4938930;29;19938;-72
2023/01/22 02:52:18;;;;;;;;;;;-1.60;99.90;;;;;;4962563;28;20062;-71
2023/01/22 02:54:47;;;;;;;;;;;-1.60;99.90;;;;;;4915582;29;19926;-70
2023/01/22 02:57:15;;;;;;;;;;;-1.60;99.90;;;;;;4935782;29;19938;-71
2023/01/22 02:59:44;;;;;;;;;;;-1.60;99.90;;;;;;4919386;29;20579;-72
2023/01/22 03:02:13;;;;;;;;;;;-1.60;99.90;;;;;;4945487;29;19926;-71
2023/01/22 03:04:41;;;;;;;;;;;-1.60;99.90;;;;;;4940173;29;19934;-72
2023/01/22 03:07:10;;;;;;;;;;;-1.60;99.90;;;;;;4939787;29;20286;-72
2023/01/22 03:09:39;;;;;;;;;;;-1.60;99.90;;;;;;4933541;29;20532;-72
2023/01/22 03:12:09;;;;;;;;;;;-1.60;99.90;;;;;;4942076;29;19926;-72
2023/01/22 03:23:01;;;;;;;;;;;-1.50;99.90;;;;;;4946085;28;20752;-72
2023/01/22 03:25:31;;;;;;;;;;;-1.50;99.90;;;;;;4944961;29;19930;-72
2023/01/22 03:28:15;;;;;;;;;;;-1.50;99.90;;;;;;4928169;29;20040;-72
2023/01/22 03:30:50;;;;;;;;;;;-1.50;99.90;;;;;;4924585;29;19962;-71
2023/01/22 03:33:23;;;;;;;;;;;-1.50;99.90;;;;;;4935163;29;20469;-72
2023/01/22 03:35:52;;;;;;;;;;;-1.50;99.90;;;;;;4936055;29;20061;-71
2023/01/22 03:38:24;;;;;;;;;;;-1.50;99.90;;;;;;4939146;29;19934;-72
2023/01/22 03:41:02;;;;;;;;;;;-1.50;99.90;;;;;;4937971;29;20021;-72
2023/01/22 03:43:33;;;;;;;;;;;-1.50;99.90;;;;;;4941598;29;19941;-72
2023/01/22 03:46:06;;;;;;;;;;;-1.50;99.90;;;;;;4920098;29;20374;-72
2023/01/22 03:48:36;;;;;;;;;;;-1.50;99.90;;;;;;4941485;29;20005;-72
2023/01/22 03:51:10;;;;;;;;;;;-1.40;99.90;;;;;;4930923;29;20313;-72
2023/01/22 03:53:40;;;;;;;;;;;-1.40;99.90;;;;;;4922809;29;19935;-71
2023/01/22 03:56:16;;;;;;;;;;;-1.40;99.90;;;;;;4938714;29;20022;-72
2023/01/22 03:58:47;;;;;;;;;;;-1.40;99.90;;;;;;4930279;29;19930;-70
2023/01/22 04:01:16;;;;;;;;;;;-1.40;99.90;;;;;;4953921;29;19961;-71
2023/01/22 04:03:51;;;;;;;;;;;-1.40;99.90;;;;;;4931381;29;19927;-71
2023/01/22 04:06:23;;;;;;;;;;;-1.40;99.90;;;;;;4936336;29;19926;-70
2023/01/22 04:08:54;;;;;;;;;;;-1.40;99.90;;;;;;4935079;29;19937;-72
2023/01/22 04:11:30;;;;;;;;;;;-1.40;99.90;;;;;;4926137;29;19926;-72
2023/01/22 04:14:00;;;;;;;;;;;-1.50;99.90;;;;;;4921200;29;19926;-72
2023/01/22 04:16:31;;;;;;;;;;;-1.40;99.90;;;;;;4942506;28;19934;-71
2023/01/22 04:19:03;;;;;;;;;;;-1.40;99.90;;;;;;4939700;29;19955;-72
2023/01/22 04:21:34;;;;;;;;;;;-1.50;99.90;;;;;;4951806;29;20064;-72
2023/01/22 04:24:08;;;;;;;;;;;-1.50;99.90;;;;;;4931879;29;19974;-69
2023/01/22 04:26:36;;;;;;;;;;;-1.50;99.90;;;;;;4939420;29;19998;-72
2023/01/22 04:29:07;;;;;;;;;;;-1.50;99.90;;;;;;4934194;29;19926;-72
2023/01/22 04:31:39;;;;;;;;;;;-1.50;99.90;;;;;;4936903;29;19953;-72
2023/01/22 04:34:43;;;;;;;;;;;-1.50;99.90;;;;;;4936429;29;20233;-72
2023/01/22 04:37:19;;;;;;;;;;;-1.50;99.90;;;;;;4952677;28;19952;-72
2023/01/22 04:39:52;;;;;;;;;;;-1.50;99.90;;;;;;4920414;29;20069;-72
2023/01/22 04:42:22;;;;;;;;;;;-1.50;99.90;;;;;;4928478;29;19926;-71
2023/01/22 04:44:52;;;;;;;;;;;-1.50;99.90;;;;;;4936560;29;19934;-70
2023/01/22 04:47:24;;;;;;;;;;;-1.50;99.90;;;;;;4964212;28;19926;-72
2023/01/22 04:49:55;;;;;;;;;;;-1.50;99.90;;;;;;4948441;29;19953;-72
2023/01/22 04:52:25;;;;;;;;;;;-1.40;99.90;;;;;;4927463;29;20121;-71
2023/01/22 04:54:58;;;;;;;;;;;-1.40;99.90;;;;;;4951095;29;19926;-72
2023/01/22 04:57:35;;;;;;;;;;;-1.40;99.90;;;;;;4939605;28;19926;-70
2023/01/22 05:00:09;;;;;;;;;;;-1.40;99.90;;;;;;4950483;29;19926;-72
2023/01/22 05:02:38;;;;;;;;;;;-1.40;99.90;;;;;;4920764;29;19930;-72
2023/01/22 05:05:12;;;;;;;;;;;-1.40;99.90;;;;;;4951215;28;19930;-74
2023/01/22 05:07:41;;;;;;;;;;;-1.40;99.90;;;;;;4964572;28;19926;-75
2023/01/22 05:10:11;;;;;;;;;;;-1.40;99.90;;;;;;4928090;29;20390;-73
2023/01/22 05:12:41;;;;;;;;;;;-1.30;99.90;;;;;;4932029;29;19926;-71
2023/01/22 05:15:10;;;;;;;;;;;-1.30;99.90;;;;;;4952950;28;20206;-72
2023/01/22 05:17:40;;;;;;;;;;;-1.40;99.90;;;;;;4942832;29;19927;-72
2023/01/22 05:20:13;;;;;;;;;;;-1.00;99.90;;;;;;4944411;29;19950;-73
2023/01/22 05:22:44;;;;;;;;;;;-0.60;99.90;;;;;;4932892;29;19937;-72
2023/01/22 05:25:14;;;;;;;;;;;-0.30;99.90;;;;;;4920123;28;20709;-71
2023/01/22 05:27:44;;;;;;;;;;;-0.10;99.90;;;;;;4927409;28;19978;-70
2023/01/22 05:30:21;;;;;;;;;;;0.10;99.90;;;;;;4937744;28;20031;-71
2023/01/22 05:33:09;;;;;;;;;;;0.30;99.90;;;;;;4938670;29;20432;-72
2023/01/22 05:35:39;;;;;;;;;;;0.50;99.90;;;;;;4931761;29;20510;-72
2023/01/22 05:38:09;;;;;;;;;;;0.40;99.90;;;;;;4942854;29;19959;-72
2023/01/22 05:40:38;;;;;;;;;;;0.30;99.90;;;;;;4954840;28;20437;-70
2023/01/22 05:43:22;;;;;;;;;;;0.00;99.90;;;;;;4950652;29;19930;-71
2023/01/22 05:46:00;;;;;;;;;;;-0.20;99.90;;;;;;4968492;29;20397;-71
2023/01/22 05:48:50;;;;;;;;;;;-0.30;99.90;;;;;;4976405;28;19927;-72
2023/01/22 05:51:24;;;;;;;;;;;-0.50;99.90;;;;;;4956470;28;19961;-71
2023/01/22 05:53:54;;;;;;;;;;;-0.60;99.90;;;;;;4936650;29;19926;-72
2023/01/22 05:56:27;;;;;;;;;;;-0.70;99.90;;;;;;4929650;29;19926;-72
2023/01/22 05:58:57;;;;;;;;;;;-0.80;99.90;;;;;;4937016;29;19931;-72
2023/01/22 06:01:27;;;;;;;;;;;-0.80;99.90;;;;;;4935711;29;20397;-72
2023/01/22 06:03:58;;;;;;;;;;;-0.90;99.90;;;;;;4910496;29;19965;-72
2023/01/22 06:06:27;;;;;;;;;;;-0.90;99.90;;;;;;4934643;29;20371;-72
2023/01/22 06:08:57;;;;;;;;;;;-1.00;99.90;;;;;;4920696;29;19937;-70
2023/01/22 06:11:31;;;;;;;;;;;-1.00;99.90;;;;;;4917813;29;20049;-72
2023/01/22 06:14:00;;;;;;;;;;;-1.00;99.90;;;;;;4935361;29;19938;-72
2023/01/22 06:16:29;;;;;;;;;;;-1.10;99.90;;;;;;4921474;29;19939;-72
2023/01/22 06:19:27;;;;;;;;;;;-1.10;99.90;;;;;;4935854;29;19926;-72
2023/01/22 06:22:04;;;;;;;;;;;-1.20;99.90;;;;;;4921069;29;20349;-72
2023/01/22 06:24:44;;;;;;;;;;;-1.20;99.90;;;;;;4920663;29;19930;-70
2023/01/22 06:27:14;;;;;;;;;;;-1.20;99.90;;;;;;4920512;29;19949;-72
2023/01/22 06:29:54;;;;;;;;;;;-1.30;99.90;;;;;;4942547;29;19966;-72
2023/01/22 06:32:25;;;;;;;;;;;-1.30;99.90;;;;;;4932473;29;19937;-70
2023/01/22 06:34:55;;;;;;;;;;;-1.30;99.90;;;;;;4920656;29;19969;-72
2023/01/22 06:37:28;;;;;;;;;;;-1.40;99.90;;;;;;4933945;29;19927;-72
2023/01/22 06:39:56;;;;;;;;;;;-1.40;99.90;;;;;;4926911;29;20621;-72
2023/01/22 06:42:35;;;;;;;;;;;-1.40;99.90;;;;;;4950600;29;19969;-72
2023/01/22 06:45:04;;;;;;;;;;;-1.40;99.90;;;;;;4934508;29;19973;-72
2023/01/22 06:47:36;;;;;;;;;;;-1.40;99.90;;;;;;4935117;28;19930;-71
2023/01/22 06:50:06;;;;;;;;;;;-1.40;99.90;;;;;;4921349;28;19994;-72
2023/01/22 06:52:34;;;;;;;;;;;-1.40;99.90;;;;;;4919249;29;20401;-72
2023/01/22 06:55:04;;;;;;;;;;;-1.40;99.90;;;;;;4928252;29;20329;-72
2023/01/22 06:57:34;;;;;;;;;;;-1.40;99.90;;;;;;4951299;28;20290;-72
2023/01/22 07:00:05;;;;;;;;;;;-1.40;99.90;;;;;;4924420;29;20381;-72
2023/01/22 07:02:39;;;;;;;;;;;-1.40;99.90;;;;;;4917164;29;20325;-70
2023/01/22 07:05:11;;;;;;;;;;;-1.40;99.90;;;;;;4952149;29;19926;-72
2023/01/22 07:07:40;;;;;;;;;;;-1.40;99.90;;;;;;4925350;29;19927;-71
2023/01/22 07:10:14;;;;;;;;;;;-1.40;99.90;;;;;;4951188;29;19930;-73
2023/01/22 07:12:57;;;;;;;;;;;-1.40;99.90;;;;;;4952068;29;19933;-71
2023/01/22 07:15:26;;;;;;;;;;;-1.40;99.90;;;;;;4949234;28;20369;-72
2023/01/22 07:17:54;;;;;;;;;;;-1.40;99.90;;;;;;4952732;28;19927;-73
2023/01/22 07:20:24;;;;;;;;;;;-1.50;99.90;;;;;;4947844;28;19926;-72
2023/01/22 07:22:56;;;;;;;;;;;-1.50;99.90;;;;;;4950404;28;20404;-72
2023/01/22 07:25:25;;;;;;;;;;;-1.40;99.90;;;;;;4922192;29;19935;-72
2023/01/22 07:28:03;;;;;;;;;;;-1.40;99.90;;;;;;4951893;28;20412;-72
2023/01/22 07:30:33;;;;;;;;;;;-1.40;99.90;;;;;;4938019;29;19934;-72
2023/01/22 07:33:02;;;;;;;;;;;-1.30;99.90;;;;;;4944000;29;19932;-72
2023/01/22 07:35:32;;;;;;;;;;;-1.40;99.90;;;;;;4950425;29;19948;-71
2023/01/22 07:38:01;;;;;;;;;;;-1.40;99.90;;;;;;4954759;29;20585;-72
2023/01/22 07:40:33;;;;;;;;;;;-1.40;99.90;;;;;;4943033;29;19930;-72
2023/01/22 07:43:06;;;;;;;;;;;-1.30;99.90;;;;;;4924909;29;20369;-71
2023/01/22 07:45:35;;;;;;;;;;;-1.30;99.90;;;;;;4946244;28;19982;-72
2023/01/22 07:48:06;;;;;;;;;;;-1.20;99.90;;;;;;4963573;28;19927;-71
2023/01/22 07:50:39;;;;;;;;;;;-1.20;99.90;;;;;;4933825;29;19934;-72
2023/01/22 07:53:10;;;;;;;;;;;-1.20;99.90;;;;;;4921987;29;19926;-72
2023/01/22 07:55:39;;;;;;;;;;;-1.20;99.90;;;;;;4941843;28;19931;-71
2023/01/22 07:58:10;;;;;;;;;;;-1.20;99.90;;;;;;4931560;29;20036;-71
2023/01/22 08:00:39;;;;;;;;;;;-1.20;99.90;;;;;;4929454;29;19930;-71
2023/01/22 08:03:09;;;;;;;;;;;-1.20;99.90;;;;;;4928936;29;19926;-71
2023/01/22 08:05:41;;;;;;;;;;;-1.20;99.90;;;;;;4934511;29;19970;-71
2023/01/22 08:08:16;;;;;;;;;;;-1.20;99.90;;;;;;4933965;29;19926;-71
2023/01/22 08:10:46;;;;;;;;;;;-1.20;99.90;;;;;;4926079;29;19937;-71
2023/01/22 08:13:21;;;;;;;;;;;-1.10;99.90;;;;;;4922320;29;19973;-71
2023/01/22 08:16:00;;;;;;;;;;;-1.00;99.90;;;;;;4938266;29;19927;-72
2023/01/22 08:18:30;;;;;;;;;;;-0.90;99.90;;;;;;4950780;29;20017;-71
2023/01/22 08:21:00;;;;;;;;;;;-0.90;99.90;;;;;;4940974;28;19930;-71
2023/01/22 08:23:29;;;;;;;;;;;-0.80;99.90;;;;;;4947197;29;20036;-71
2023/01/22 08:25:59;;;;;;;;;;;-0.70;99.90;;;;;;4933416;29;19986;-72
2023/01/22 08:28:30;;;;;;;;;;;-0.60;99.90;;;;;;4951701;29;19982;-71
2023/01/22 08:31:02;;;;;;;;;;;-0.40;99.90;;;;;;4943143;29;19926;-72
2023/01/22 08:33:36;;;;;;;;;;;-0.30;99.90;;;;;;4954295;29;20453;-71
2023/01/22 08:36:08;;;;;;;;;;;-0.40;99.90;;;;;;4941054;29;19930;-71
2023/01/22 08:38:37;;;;;;;;;;;-0.30;99.90;;;;;;4915854;29;20005;-71
2023/01/22 08:41:09;;;;;;;;;;;-0.30;99.90;;;;;;4953416;29;20306;-71
2023/01/22 08:43:39;;;;;;;;;;;-0.40;99.90;;;;;;4919906;29;19934;-71
2023/01/22 08:46:13;;;;;;;;;;;-0.40;99.90;;;;;;4921092;29;19977;-71
2023/01/22 08:48:43;;;;;;;;;;;-0.50;99.90;;;;;;4948621;29;20016;-71
2023/01/22 08:51:12;;;;;;;;;;;-0.50;99.90;;;;;;4934583;29;19926;-71
2023/01/22 08:53:41;;;;;;;;;;;-0.30;99.90;;;;;;4952626;28;19938;-71
2023/01/22 08:56:10;;;;;;;;;;;-0.30;99.90;;;;;;4919397;29;19927;-71
2023/01/22 08:58:43;;;;;;;;;;;-0.20;99.90;;;;;;4952209;28;19983;-71
2023/01/22 09:01:15;;;;;;;;;;;-0.10;99.90;;;;;;4948754;28;19931;-71
2023/01/22 09:03:45;;;;;;;;;;;0.00;99.90;;;;;;4939515;29;19930;-71
2023/01/22 09:06:15;;;;;;;;;;;0.00;99.90;;;;;;4928374;29;19931;-71
2023/01/22 09:08:43;;;;;;;;;;;0.10;99.90;;;;;;4910641;29;19939;-71
2023/01/22 09:11:18;;;;;;;;;;;0.10;99.90;;;;;;4951492;29;19930;-71
2023/01/22 09:13:48;;;;;;;;;;;0.10;99.90;;;;;;4949125;28;19981;-71
2023/01/22 09:16:26;;;;;;;;;;;0.10;99.90;;;;;;4922700;29;20373;-72
2023/01/22 09:19:00;;;;;;;;;;;0.10;99.90;;;;;;4952360;29;19926;-71
2023/01/22 09:21:32;;;;;;;;;;;0.10;99.90;;;;;;4941144;28;19972;-71
2023/01/22 09:24:03;;;;;;;;;;;0.10;99.90;;;;;;4951837;29;20535;-71
2023/01/22 09:26:35;;;;;;;;;;;0.10;99.90;;;;;;4936519;29;19931;-71
2023/01/22 09:29:04;;;;;;;;;;;0.10;99.90;;;;;;4947326;29;19933;-71
2023/01/22 09:31:33;;;;;;;;;;;0.10;99.90;;;;;;4924571;29;19981;-71
2023/01/22 09:34:04;;;;;;;;;;;0.00;99.90;;;;;;4919172;29;19927;-71
2023/01/22 09:36:33;;;;;;;;;;;0.00;99.90;;;;;;4933928;29;19965;-72
2023/01/22 09:39:06;;;;;;;;;;;-0.10;99.90;;;;;;4927221;29;19979;-72
2023/01/22 09:41:38;;;;;;;;;;;-0.10;99.90;;;;;;4950939;29;19926;-71
2023/01/22 09:44:21;;;;;;;;;;;0.00;99.90;;;;;;4949216;28;19934;-71
2023/01/22 09:46:55;;;;;;;;;;;0.10;99.90;;;;;;4920228;29;19937;-72
2023/01/22 09:49:29;;;;;;;;;;;0.20;99.90;;;;;;4935134;29;19926;-71
2023/01/22 09:51:58;;;;;;;;;;;0.10;99.90;;;;;;4935266;29;19926;-71
2023/01/22 09:54:30;;;;;;;;;;;0.20;99.90;;;;;;4935923;29;20472;-71
2023/01/22 09:56:59;;;;;;;;;;;0.30;99.90;;;;;;4948376;29;19933;-71
2023/01/22 09:59:33;;;;;;;;;;;0.30;99.90;;;;;;4935346;29;20302;-72
2023/01/22 10:02:11;;;;;;;;;;;0.40;99.90;;;;;;4942773;28;19926;-71
2023/01/22 10:04:41;;;;;;;;;;;0.40;99.90;;;;;;4949083;28;19926;-71
2023/01/22 10:07:23;;;;;;;;;;;0.30;99.90;;;;;;4928100;29;19942;-71
2023/01/22 10:09:53;;;;;;;;;;;0.20;99.90;;;;;;4934362;29;19930;-71
2023/01/22 10:12:31;;;;;;;;;;;0.10;99.90;;;;;;4951020;29;20345;-71
2023/01/22 10:15:01;;;;;;;;;;;0.00;99.90;;;;;;4930672;29;20491;-71
2023/01/22 10:17:33;;;;;;;;;;;0.00;99.90;;;;;;4924866;29;20036;-71
2023/01/22 10:20:20;;;;;;;;;;;0.00;99.90;;;;;;4931799;29;20302;-71
2023/01/22 10:22:53;;;;;;;;;;;0.10;99.90;;;;;;4935036;29;19933;-71
2023/01/22 10:25:22;;;;;;;;;;;0.10;99.90;;;;;;4938641;29;20390;-71
2023/01/22 10:28:00;;;;;;;;;;;0.20;99.90;;;;;;4909449;29;20040;-71
2023/01/22 10:30:29;;;;;;;;;;;0.20;99.90;;;;;;4920565;29;19962;-71
2023/01/22 10:32:59;;;;;;;;;;;0.30;99.90;;;;;;4929719;28;19946;-71
2023/01/22 10:35:30;;;;;;;;;;;0.30;99.90;;;;;;4918912;29;20025;-71
2023/01/22 10:38:00;;;;;;;;;;;0.40;99.90;;;;;;4924229;29;20013;-72
2023/01/22 10:40:39;;;;;;;;;;;0.40;99.90;;;;;;4948450;29;19930;-71
2023/01/22 10:43:16;;;;;;;;;;;0.50;99.90;;;;;;4955469;28;20111;-71
2023/01/22 10:45:53;;;;;;;;;;;0.70;99.90;;;;;;4934749;29;19927;-71
2023/01/22 10:48:23;;;;;;;;;;;0.90;99.90;;;;;;4948046;29;19954;-73
2023/01/22 10:51:00;;;;;;;;;;;0.90;99.90;;;;;;4920766;29;20044;-71
2023/01/22 10:53:34;;;;;;;;;;;1.00;99.90;;;;;;4953378;29;20071;-71
2023/01/22 10:56:11;;;;;;;;;;;1.00;99.90;;;;;;4958304;28;19978;-72
2023/01/22 10:58:48;;;;;;;;;;;1.00;99.90;;;;;;4959152;28;19927;-72
2023/01/22 11:01:25;;;;;;;;;;;1.10;99.90;;;;;;4950096;29;19962;-72
2023/01/22 11:03:53;;;;;;;;;;;1.20;99.90;;;;;;4965388;29;20397;-72
2023/01/22 11:06:36;;;;;;;;;;;1.20;99.90;;;;;;4969750;28;20361;-72
2023/01/22 11:09:07;;;;;;;;;;;1.20;99.90;;;;;;4940623;29;20025;-72
2023/01/22 11:11:40;;;;;;;;;;;1.20;99.90;;;;;;4929607;29;19978;-71
2023/01/22 11:14:26;;;;;;;;;;;1.10;99.90;;;;;;4922274;28;19933;-72
2023/01/22 11:17:03;;;;;;;;;;;1.00;99.90;;;;;;4950791;29;20405;-71
2023/01/22 11:19:59;;;;;;;;;;;0.90;99.90;;;;;;4929180;29;19941;-72
2023/01/22 11:22:33;;;;;;;;;;;0.90;99.90;;;;;;4969382;29;19911;-72
2023/01/22 11:25:04;;;;;;;;;;;1.00;99.90;;;;;;4973409;29;19930;-71
2023/01/22 11:27:45;;;;;;;;;;;0.90;99.90;;;;;;4958035;29;19927;-72
2023/01/22 11:30:23;;;;;;;;;;;0.90;99.90;;;;;;4945058;29;19930;-71
2023/01/22 11:33:13;;;;;;;;;;;0.80;99.90;;;;;;4952491;29;19933;-71
2023/01/22 11:35:54;;;;;;;;;;;0.80;99.90;;;;;;4952845;29;19937;-71
2023/01/22 11:38:25;;;;;;;;;;;0.70;99.90;;;;;;4939035;29;19961;-71
2023/01/22 11:41:12;;;;;;;;;;;0.60;99.90;;;;;;4951618;29;20371;-71
2023/01/22 11:43:54;;;;;;;;;;;0.50;99.90;;;;;;4936820;29;20342;-71
2023/01/22 11:46:24;;;;;;;;;;;0.40;99.90;;;;;;4952335;29;19927;-71
2023/01/22 11:49:11;;;;;;;;;;;0.40;99.90;;;;;;4966148;28;20021;-71
2023/01/22 11:51:55;;;;;;;;;;;0.40;99.90;;;;;;4941059;29;20009;-71
2023/01/22 11:54:29;;;;;;;;;;;0.30;99.90;;;;;;4922426;29;20409;-71
2023/01/22 12:00:30;;;;;;;;;;;0.40;99.90;;;;;;4952517;29;19957;-71
2023/01/22 12:03:05;;;;;;;;;;;0.50;99.90;;;;;;4937707;29;19963;-71
2023/01/22 12:05:52;;;;;;;;;;;0.60;99.90;;;;;;4953247;29;19926;-72
2023/01/22 12:08:29;;;;;;;;;;;0.70;99.90;;;;;;4924389;29;19927;-71
2023/01/22 12:11:01;;;;;;;;;;;0.90;99.90;;;;;;4920341;29;19930;-72
2023/01/22 12:13:48;;;;;;;;;;;1.00;99.90;;;;;;4936933;29;20377;-71
2023/01/22 12:16:38;;;;;;;;;;;1.10;99.90;;;;;;4953941;28;20300;-71
2023/01/22 12:19:19;;;;;;;;;;;1.20;99.90;;;;;;4934473;29;20378;-72
2023/01/22 12:21:57;;;;;;;;;;;1.30;99.90;;;;;;4952558;29;20460;-71
2023/01/22 12:24:55;;;;;;;;;;;1.30;99.90;;;;;;4929699;29;20448;-71
2023/01/22 12:27:26;;;;;;;;;;;1.40;99.90;;;;;;4935617;29;19994;-71
2023/01/22 12:30:11;;;;;;;;;;;1.50;99.90;;;;;;4934515;29;20472;-71
2023/01/22 12:32:41;;;;;;;;;;;1.50;99.90;;;;;;4933391;29;19926;-72
2023/01/22 12:35:14;;;;;;;;;;;1.60;99.90;;;;;;4930501;29;20381;-72
2023/01/22 12:37:56;;;;;;;;;;;1.70;99.90;;;;;;4949449;28;19934;-72
2023/01/22 12:40:54;;;;;;;;;;;1.70;99.90;;;;;;4921162;29;19930;-71
2023/01/22 12:43:30;;;;;;;;;;;1.90;99.90;;;;;;4947521;29;20017;-71
2023/01/22 12:46:25;;;;;;;;;;;2.00;99.90;;;;;;4935900;29;20038;-71
2023/01/22 12:48:59;;;;;;;;;;;2.10;99.90;;;;;;4913270;29;19991;-71
2023/01/22 12:51:37;;;;;;;;;;;2.20;99.90;;;;;;4938466;29;19930;-71
2023/01/22 12:54:24;;;;;;;;;;;2.20;99.90;;;;;;4919199;29;19926;-71
2023/01/22 12:57:21;;;;;;;;;;;2.20;99.90;;;;;;4965445;28;20454;-71
2023/01/22 12:59:51;;;;;;;;;;;2.20;99.90;;;;;;4920266;29;19982;-72
2023/01/22 13:02:36;;;;;;;;;;;2.20;99.90;;;;;;4933877;29;19931;-71
2023/01/22 13:05:17;;;;;;;;;;;2.20;99.90;;;;;;4917462;29;19933;-71
2023/01/22 13:07:50;;;;;;;;;;;2.30;99.90;;;;;;4923924;29;20364;-71
2023/01/22 13:10:19;;;;;;;;;;;2.40;99.90;;;;;;4939693;28;19926;-71
2023/01/22 13:12:50;;;;;;;;;;;2.40;99.90;;;;;;4942941;29;19930;-71
2023/01/22 13:15:22;;;;;;;;;;;2.40;99.90;;;;;;4919776;29;19937;-71
2023/01/22 13:18:03;;;;;;;;;;;2.40;99.90;;;;;;4935556;28;19927;-72
2023/01/22 13:20:37;;;;;;;;;;;2.40;99.90;;;;;;4919347;29;19934;-72
2023/01/22 13:23:07;;;;;;;;;;;2.40;99.90;;;;;;4941214;29;19982;-71
2023/01/22 13:25:37;;;;;;;;;;;2.20;99.90;;;;;;4945502;28;20385;-71
2023/01/22 13:28:09;;;;;;;;;;;2.30;99.90;;;;;;4935856;29;19960;-72
2023/01/22 13:30:38;;;;;;;;;;;2.30;99.90;;;;;;4938349;29;19930;-71
2023/01/22 13:33:14;;;;;;;;;;;2.30;99.90;;;;;;4944148;28;19999;-71
2023/01/22 13:35:46;;;;;;;;;;;2.30;99.90;;;;;;4921916;29;20446;-71
2023/01/22 13:38:17;;;;;;;;;;;2.20;99.90;;;;;;4933470;29;19933;-72
2023/01/22 13:41:07;;;;;;;;;;;2.20;99.90;;;;;;4938066;29;19926;-72
2023/01/22 13:43:44;;;;;;;;;;;2.00;99.90;;;;;;4952386;29;20143;-72
2023/01/22 13:46:18;;;;;;;;;;;2.00;99.90;;;;;;4951500;28;20336;-71
2023/01/22 13:48:47;;;;;;;;;;;1.90;99.90;;;;;;4932721;29;20352;-72
2023/01/22 13:51:18;;;;;;;;;;;1.90;99.90;;;;;;4950266;28;19965;-72
2023/01/22 13:53:49;;;;;;;;;;;1.80;99.90;;;;;;4942385;29;20301;-72
2023/01/22 13:56:22;;;;;;;;;;;1.80;99.90;;;;;;4953069;29;19926;-72
2023/01/22 13:58:50;;;;;;;;;;;1.70;99.90;;;;;;4935106;29;19933;-72
2023/01/22 14:01:30;;;;;;;;;;;1.70;99.90;;;;;;4919309;29;19968;-72
2023/01/22 14:04:30;;;;;;;;;;;1.70;99.90;;;;;;4949600;29;19927;-72
2023/01/22 14:07:00;;;;;;;;;;;1.70;99.90;;;;;;4939582;29;19934;-72
2023/01/22 14:09:32;;;;;;;;;;;1.60;99.90;;;;;;4935302;28;20041;-72
2023/01/22 14:12:12;;;;;;;;;;;1.60;99.90;;;;;;4937423;29;19934;-72
2023/01/22 14:14:42;;;;;;;;;;;1.60;99.90;;;;;;4952915;29;19927;-72
2023/01/22 14:17:32;;;;;;;;;;;1.50;99.90;;;;;;4927972;29;19954;-72
2023/01/22 14:20:03;;;;;;;;;;;1.40;99.90;;;;;;4951074;29;19982;-72
2023/01/22 14:22:32;;;;;;;;;;;1.30;99.90;;;;;;4929414;29;19930;-72
2023/01/22 14:25:01;;;;;;;;;;;1.30;99.90;;;;;;4919457;29;19934;-72
2023/01/22 14:27:46;;;;;;;;;;;1.20;99.90;;;;;;4934613;29;20017;-72
2023/01/22 14:30:20;;;;;;;;;;;1.10;99.90;;;;;;4953660;28;19930;-72
2023/01/22 14:32:49;;;;;;;;;;;1.00;99.90;;;;;;4940099;29;20013;-72
2023/01/22 14:35:20;;;;;;;;;;;1.00;99.90;;;;;;4933403;29;20021;-72
2023/01/22 14:37:51;;;;;;;;;;;0.90;99.90;;;;;;4933129;29;19933;-72
2023/01/22 14:40:22;;;;;;;;;;;0.90;99.90;;;;;;4936274;29;19933;-72
2023/01/22 14:42:51;;;;;;;;;;;0.90;99.90;;;;;;4945226;28;20021;-72
2023/01/22 14:45:20;;;;;;;;;;;0.80;99.90;;;;;;4937200;29;19966;-72
2023/01/22 14:47:50;;;;;;;;;;;0.80;99.90;;;;;;4952611;28;19927;-72
2023/01/22 14:50:19;;;;;;;;;;;0.80;99.90;;;;;;4938031;29;19926;-72
2023/01/22 14:52:49;;;;;;;;;;;0.80;99.90;;;;;;4933577;29;19927;-72
2023/01/22 14:55:19;;;;;;;;;;;0.80;99.90;;;;;;4933399;29;19937;-72
2023/01/22 14:57:56;;;;;;;;;;;0.80;99.90;;;;;;4931200;29;19973;-72
2023/01/22 15:00:27;;;;;;;;;;;0.80;99.90;;;;;;4953544;29;19930;-72
2023/01/22 15:03:02;;;;;;;;;;;0.80;99.90;;;;;;4953342;29;20449;-71
2023/01/22 15:05:31;;;;;;;;;;;0.80;99.90;;;;;;4922816;29;20017;-71
2023/01/22 15:08:00;;;;;;;;;;;0.70;99.90;;;;;;4922721;29;20041;-72
2023/01/22 15:10:30;;;;;;;;;;;0.70;99.90;;;;;;4929541;29;20025;-71
2023/01/22 15:13:00;;;;;;;;;;;0.60;99.90;;;;;;4950377;28;20067;-71